KMAF

Midland International Air and Space Port Airport

Midland, Texas, USA
KMAF 210307Z 2103/2124 16015G22KT P6SM BKN025 FM210600 18008KT P6SM SCT030 SCT200 TEMPO 2108/2112 BKN025 FM211200 24013KT P6SM SKC FM211600 30015G25KT P6SM SKC
Issued Valid From Valid To
Apr-21 @ 03:07 UTC
(54 minutes ago)
Apr-21 @ 03:00 UTC
(an hour ago)
Apr-22 @ 00:00 UTC
(in 20 hours)
Apr-21 @ 03:00 to Apr-21 @ 06:00
KMAF 210307Z 2103/2124 16015G22KT P6SM BKN025
Wind Visibility Clouds
160° at 15 knots
 Gusting to 22 knots
Greater than 6 miles
  • Broken at 2,500' AGL
From Apr-21 @ 06:00 to Apr-21 @ 12:00
FM210600 18008KT P6SM SCT030 SCT200
Wind Visibility Clouds
180° at 8 knots Greater than 6 miles
  • Scattered at 3,000' AGL
  • Scattered at 20,000' AGL
Temporary Apr-21 @ 08:00 to Apr-21 @ 12:00
TEMPO 2108/2112 BKN025
Clouds
  • Broken at 2,500' AGL
From Apr-21 @ 12:00 to Apr-21 @ 16:00
FM211200 24013KT P6SM SKC
Wind Visibility Clouds
240° at 13 knots Greater than 6 miles
  • Clear skies
From Apr-21 @ 16:00 to Apr-22 @ 00:00
FM211600 30015G25KT P6SM SKC
Wind Visibility Clouds
300° at 15 knots
 Gusting to 25 knots
Greater than 6 miles
  • Clear skies
KMAF 210307Z 2103/2124 16015G22KT P6SM BKN025 FM210600 18008KT P6SM SCT030 SCT200 TEMPO 2108/2112 BKN025 FM211200 24013KT P6SM SKC FM211600 30015G25KT P6SM SKC
Issued Apr-21 @ 03:07 UTC
(54 minutes ago)
Valid From Apr-21 @ 03:00 UTC
(an hour ago)
Valid To Apr-22 @ 00:00 UTC
(in 20 hours)
Apr-21 @ 03:00 - Apr-21 @ 06:00
Wind Visibility
160° at 15 knots
 Gusting to 22 knots
Greater than 6 miles
Clouds
  • Broken at 2,500' AGL
From Apr-21 @ 06:00 - Apr-21 @ 12:00
Wind Visibility
180° at 8 knots Greater than 6 miles
Clouds
  • Scattered at 3,000' AGL
  • Scattered at 20,000' AGL
Temporary Apr-21 @ 08:00 - Apr-21 @ 12:00
Clouds
  • Broken at 2,500' AGL
From Apr-21 @ 12:00 - Apr-21 @ 16:00
Wind Visibility
240° at 13 knots Greater than 6 miles
Clouds
  • Clear skies
From Apr-21 @ 16:00 - Apr-22 @ 00:00
Wind Visibility
300° at 15 knots
 Gusting to 25 knots
Greater than 6 miles
Clouds
  • Clear skies